sensor_id;sensor_type;location;lat;lon;timestamp;pressure;altitude;pressure_sealevel;temperature;humidity
53522;BME280;39398;48.382;9.802;2022-12-18T00:00:10;94670.72;;;-6.83;100.00
53522;BME280;39398;48.382;9.802;2022-12-18T00:01:19;94661.88;;;-6.96;100.00
53522;BME280;39398;48.382;9.802;2022-12-18T00:02:21;94667.56;;;-6.89;100.00
53522;BME280;39398;48.382;9.802;2022-12-18T00:03:22;94668.75;;;-6.96;100.00
53522;BME280;39398;48.382;9.802;2022-12-18T00:04:25;94666.97;;;-6.94;100.00
53522;BME280;39398;48.382;9.802;2022-12-18T00:05:27;94669.59;;;-6.96;100.00
53522;BME280;39398;48.382;9.802;2022-12-18T00:06:29;94669.31;;;-6.90;100.00
53522;BME280;39398;48.382;9.802;2022-12-18T00:07:31;94665.22;;;-6.94;100.00
53522;BME280;39398;48.382;9.802;2022-12-18T00:08:32;94669.44;;;-6.93;100.00
53522;BME280;39398;48.382;9.802;2022-12-18T00:09:34;94666.41;;;-7.01;100.00
53522;BME280;39398;48.382;9.802;2022-12-18T00:10:40;94671.13;;;-6.92;100.00
53522;BME280;39398;48.382;9.802;2022-12-18T00:11:42;94669.28;;;-7.09;100.00
53522;BME280;39398;48.382;9.802;2022-12-18T00:12:44;94671.53;;;-7.01;100.00
53522;BME280;39398;48.382;9.802;2022-12-18T00:13:46;94663.06;;;-7.03;100.00
53522;BME280;39398;48.382;9.802;2022-12-18T00:14:48;94669.03;;;-7.03;100.00
53522;BME280;39398;48.382;9.802;2022-12-18T00:15:49;94673.97;;;-6.98;100.00
53522;BME280;39398;48.382;9.802;2022-12-18T00:16:52;94667.72;;;-7.11;100.00
53522;BME280;39398;48.382;9.802;2022-12-18T00:17:54;94672.28;;;-6.99;100.00
53522;BME280;39398;48.382;9.802;2022-12-18T00:18:58;94673.16;;;-6.98;100.00
53522;BME280;39398;48.382;9.802;2022-12-18T00:20:00;94674.53;;;-6.91;100.00
53522;BME280;39398;48.382;9.802;2022-12-18T00:21:04;94671.59;;;-6.84;100.00
53522;BME280;39398;48.382;9.802;2022-12-18T00:22:06;94669.31;;;-6.71;100.00
53522;BME280;39398;48.382;9.802;2022-12-18T00:23:07;94673.63;;;-6.71;100.00
53522;BME280;39398;48.382;9.802;2022-12-18T00:24:10;94676.28;;;-6.73;100.00
53522;BME280;39398;48.382;9.802;2022-12-18T00:25:11;94673.41;;;-6.67;100.00
53522;BME280;39398;48.382;9.802;2022-12-18T00:26:15;94675.69;;;-6.80;100.00
53522;BME280;39398;48.382;9.802;2022-12-18T00:27:17;94681.81;;;-6.82;100.00
53522;BME280;39398;48.382;9.802;2022-12-18T00:28:18;94680.81;;;-6.61;100.00
53522;BME280;39398;48.382;9.802;2022-12-18T00:29:20;94676.97;;;-6.69;100.00
53522;BME280;39398;48.382;9.802;2022-12-18T00:30:22;94681.88;;;-6.84;100.00
53522;BME280;39398;48.382;9.802;2022-12-18T00:31:24;94683.13;;;-6.92;100.00
53522;BME280;39398;48.382;9.802;2022-12-18T00:32:27;94677.84;;;-6.89;100.00
53522;BME280;39398;48.382;9.802;2022-12-18T00:33:29;94675.69;;;-7.17;100.00
53522;BME280;39398;48.382;9.802;2022-12-18T00:34:31;94672.56;;;-6.86;100.00
53522;BME280;39398;48.382;9.802;2022-12-18T00:35:33;94673.41;;;-6.67;100.00
53522;BME280;39398;48.382;9.802;2022-12-18T00:36:34;94674.72;;;-6.96;100.00
53522;BME280;39398;48.382;9.802;2022-12-18T00:37:36;94677.84;;;-6.70;100.00
53522;BME280;39398;48.382;9.802;2022-12-18T00:38:38;94681.13;;;-6.86;100.00
53522;BME280;39398;48.382;9.802;2022-12-18T00:39:40;94683.72;;;-7.06;100.00
53522;BME280;39398;48.382;9.802;2022-12-18T00:40:42;94688.47;;;-6.97;100.00
53522;BME280;39398;48.382;9.802;2022-12-18T00:41:43;94683.69;;;-6.86;100.00
53522;BME280;39398;48.382;9.802;2022-12-18T00:42:45;94688.53;;;-6.98;100.00
53522;BME280;39398;48.382;9.802;2022-12-18T00:43:46;94688.13;;;-6.70;100.00
53522;BME280;39398;48.382;9.802;2022-12-18T00:44:48;94684.13;;;-6.76;100.00
53522;BME280;39398;48.382;9.802;2022-12-18T00:45:50;94684.66;;;-6.69;100.00
53522;BME280;39398;48.382;9.802;2022-12-18T00:46:51;94686.97;;;-6.82;100.00
53522;BME280;39398;48.382;9.802;2022-12-18T00:47:54;94688.84;;;-6.86;100.00
53522;BME280;39398;48.382;9.802;2022-12-18T00:48:56;94687.22;;;-6.69;100.00
53522;BME280;39398;48.382;9.802;2022-12-18T00:49:58;94688.94;;;-6.51;100.00
53522;BME280;39398;48.382;9.802;2022-12-18T00:50:59;94688.06;;;-6.50;100.00
53522;BME280;39398;48.382;9.802;2022-12-18T00:52:01;94687.50;;;-6.57;100.00
53522;BME280;39398;48.382;9.802;2022-12-18T00:53:02;94688.75;;;-6.65;100.00
53522;BME280;39398;48.382;9.802;2022-12-18T00:54:04;94692.00;;;-6.62;100.00
53522;BME280;39398;48.382;9.802;2022-12-18T00:55:06;94690.97;;;-6.76;100.00
53522;BME280;39398;48.382;9.802;2022-12-18T00:56:08;94697.69;;;-6.74;100.00
53522;BME280;39398;48.382;9.802;2022-12-18T00:57:09;94691.81;;;-6.76;100.00
53522;BME280;39398;48.382;9.802;2022-12-18T00:58:12;94696.03;;;-6.94;100.00
53522;BME280;39398;48.382;9.802;2022-12-18T00:59:14;94692.00;;;-6.99;100.00
53522;BME280;39398;48.382;9.802;2022-12-18T01:00:16;94686.53;;;-6.92;100.00
53522;BME280;39398;48.382;9.802;2022-12-18T01:01:18;94693.06;;;-6.85;100.00
53522;BME280;39398;48.382;9.802;2022-12-18T01:02:19;94694.44;;;-6.59;100.00
53522;BME280;39398;48.382;9.802;2022-12-18T01:03:23;94691.97;;;-6.60;100.00
53522;BME280;39398;48.382;9.802;2022-12-18T01:04:24;94690.97;;;-6.76;100.00
53522;BME280;39398;48.382;9.802;2022-12-18T01:05:26;94690.69;;;-6.70;100.00
53522;BME280;39398;48.382;9.802;2022-12-18T01:06:28;94690.50;;;-6.85;100.00
53522;BME280;39398;48.382;9.802;2022-12-18T01:07:30;94696.03;;;-6.94;100.00
53522;BME280;39398;48.382;9.802;2022-12-18T01:08:31;94689.03;;;-6.71;100.00
53522;BME280;39398;48.382;9.802;2022-12-18T01:09:33;94692.78;;;-6.79;100.00
53522;BME280;39398;48.382;9.802;2022-12-18T01:10:34;94689.03;;;-6.90;100.00
53522;BME280;39398;48.382;9.802;2022-12-18T01:11:36;94691.97;;;-6.60;100.00
53522;BME280;39398;48.382;9.802;2022-12-18T01:12:38;94690.41;;;-6.64;100.00
53522;BME280;39398;48.382;9.802;2022-12-18T01:13:40;94686.22;;;-6.67;100.00
53522;BME280;39398;48.382;9.802;2022-12-18T01:14:42;94692.50;;;-6.72;100.00
53522;BME280;39398;48.382;9.802;2022-12-18T01:15:48;94693.81;;;-6.64;100.00
53522;BME280;39398;48.382;9.802;2022-12-18T01:16:49;94689.84;;;-6.90;100.00
53522;BME280;39398;48.382;9.802;2022-12-18T01:17:52;94702.41;;;-6.84;100.00
53522;BME280;39398;48.382;9.802;2022-12-18T01:18:55;94699.00;;;-6.84;100.00
53522;BME280;39398;48.382;9.802;2022-12-18T01:19:57;94699.53;;;-6.76;100.00
53522;BME280;39398;48.382;9.802;2022-12-18T01:20:58;94705.13;;;-6.87;100.00
53522;BME280;39398;48.382;9.802;2022-12-18T01:22:00;94701.59;;;-6.65;100.00
53522;BME280;39398;48.382;9.802;2022-12-18T01:23:01;94703.19;;;-6.63;100.00
53522;BME280;39398;48.382;9.802;2022-12-18T01:24:03;94704.72;;;-6.78;100.00
53522;BME280;39398;48.382;9.802;2022-12-18T01:25:06;94703.25;;;-6.83;100.00
53522;BME280;39398;48.382;9.802;2022-12-18T01:26:10;94708.66;;;-6.70;100.00
53522;BME280;39398;48.382;9.802;2022-12-18T01:27:12;94706.19;;;-6.53;100.00
53522;BME280;39398;48.382;9.802;2022-12-18T01:28:14;94713.59;;;-6.85;100.00
53522;BME280;39398;48.382;9.802;2022-12-18T01:29:15;94712.38;;;-6.57;100.00
53522;BME280;39398;48.382;9.802;2022-12-18T01:30:17;94714.50;;;-6.48;100.00
53522;BME280;39398;48.382;9.802;2022-12-18T01:31:21;94716.63;;;-6.39;100.00
53522;BME280;39398;48.382;9.802;2022-12-18T01:32:23;94711.38;;;-6.73;100.00
53522;BME280;39398;48.382;9.802;2022-12-18T01:33:24;94718.88;;;-6.69;100.00
53522;BME280;39398;48.382;9.802;2022-12-18T01:34:27;94721.91;;;-6.61;100.00
53522;BME280;39398;48.382;9.802;2022-12-18T01:35:29;94718.09;;;-6.71;100.00
53522;BME280;39398;48.382;9.802;2022-12-18T01:36:32;94717.22;;;-6.89;100.00
53522;BME280;39398;48.382;9.802;2022-12-18T01:37:34;94719.94;;;-6.73;100.00
53522;BME280;39398;48.382;9.802;2022-12-18T01:38:36;94715.94;;;-6.61;100.00
53522;BME280;39398;48.382;9.802;2022-12-18T01:39:38;94715.75;;;-6.75;100.00
53522;BME280;39398;48.382;9.802;2022-12-18T01:40:48;94717.28;;;-6.71;100.00
53522;BME280;39398;48.382;9.802;2022-12-18T01:41:50;94723.66;;;-6.80;100.00
53522;BME280;39398;48.382;9.802;2022-12-18T01:42:52;94716.06;;;-6.83;100.00
53522;BME280;39398;48.382;9.802;2022-12-18T01:43:55;94717.41;;;-6.93;100.00
53522;BME280;39398;48.382;9.802;2022-12-18T01:45:00;94712.50;;;-6.60;100.00
53522;BME280;39398;48.382;9.802;2022-12-18T01:46:02;94719.34;;;-6.61;100.00
53522;BME280;39398;48.382;9.802;2022-12-18T01:47:04;94713.94;;;-6.55;100.00
53522;BME280;39398;48.382;9.802;2022-12-18T01:48:06;94726.59;;;-6.50;100.00
53522;BME280;39398;48.382;9.802;2022-12-18T01:49:09;94729.56;;;-6.59;100.00
53522;BME280;39398;48.382;9.802;2022-12-18T01:50:14;94726.38;;;-6.64;100.00
53522;BME280;39398;48.382;9.802;2022-12-18T01:51:17;94731.44;;;-6.44;100.00
53522;BME280;39398;48.382;9.802;2022-12-18T01:52:20;94729.22;;;-6.51;100.00
53522;BME280;39398;48.382;9.802;2022-12-18T01:53:23;94728.75;;;-6.60;100.00
53522;BME280;39398;48.382;9.802;2022-12-18T01:54:25;94734.72;;;-6.59;100.00
53522;BME280;39398;48.382;9.802;2022-12-18T01:55:30;94732.28;;;-6.43;100.00
53522;BME280;39398;48.382;9.802;2022-12-18T01:56:32;94732.59;;;-6.32;100.00
53522;BME280;39398;48.382;9.802;2022-12-18T01:57:34;94739.59;;;-6.73;100.00
53522;BME280;39398;48.382;9.802;2022-12-18T01:58:42;94735.25;;;-6.71;100.00
53522;BME280;39398;48.382;9.802;2022-12-18T01:59:50;94734.75;;;-6.61;100.00
53522;BME280;39398;48.382;9.802;2022-12-18T02:00:54;94726.22;;;-6.80;100.00
53522;BME280;39398;48.382;9.802;2022-12-18T02:01:56;94726.34;;;-6.83;100.00
53522;BME280;39398;48.382;9.802;2022-12-18T02:02:58;94717.47;;;-6.95;100.00
53522;BME280;39398;48.382;9.802;2022-12-18T02:04:19;94721.16;;;-6.82;100.00
53522;BME280;39398;48.382;9.802;2022-12-18T02:05:31;94717.41;;;-6.74;100.00
53522;BME280;39398;48.382;9.802;2022-12-18T02:06:53;94726.28;;;-6.82;100.00
53522;BME280;39398;48.382;9.802;2022-12-18T02:08:03;94726.63;;;-7.08;100.00
53522;BME280;39398;48.382;9.802;2022-12-18T02:09:12;94726.56;;;-6.88;100.00
53522;BME280;39398;48.382;9.802;2022-12-18T02:10:19;94732.41;;;-6.84;100.00
53522;BME280;39398;48.382;9.802;2022-12-18T02:11:30;94721.91;;;-6.80;100.00
53522;BME280;39398;48.382;9.802;2022-12-18T02:12:39;94716.97;;;-7.03;100.00
53522;BME280;39398;48.382;9.802;2022-12-18T02:13:46;94719.25;;;-6.97;100.00
53522;BME280;39398;48.382;9.802;2022-12-18T02:14:56;94718.31;;;-6.94;100.00
53522;BME280;39398;48.382;9.802;2022-12-18T02:16:05;94708.34;;;-7.02;100.00
53522;BME280;39398;48.382;9.802;2022-12-18T02:17:13;94708.94;;;-6.76;100.00
53522;BME280;39398;48.382;9.802;2022-12-18T02:18:20;94702.28;;;-6.81;100.00
53522;BME280;39398;48.382;9.802;2022-12-18T02:19:50;94707.06;;;-6.92;100.00
53522;BME280;39398;48.382;9.802;2022-12-18T02:21:00;94714.97;;;-6.96;100.00
53522;BME280;39398;48.382;9.802;2022-12-18T02:22:22;94724.41;;;-6.78;100.00
53522;BME280;39398;48.382;9.802;2022-12-18T02:23:41;94712.41;;;-6.78;100.00
53522;BME280;39398;48.382;9.802;2022-12-18T02:24:54;94718.72;;;-6.85;100.00
53522;BME280;39398;48.382;9.802;2022-12-18T02:26:14;94708.66;;;-7.08;100.00
53522;BME280;39398;48.382;9.802;2022-12-18T02:27:18;94705.97;;;-7.26;100.00
53522;BME280;39398;48.382;9.802;2022-12-18T02:28:23;94707.06;;;-6.92;100.00
53522;BME280;39398;48.382;9.802;2022-12-18T02:29:30;94700.66;;;-7.02;100.00
53522;BME280;39398;48.382;9.802;2022-12-18T02:30:35;94700.19;;;-6.91;100.00
53522;BME280;39398;48.382;9.802;2022-12-18T02:31:43;94703.53;;;-6.70;100.00
53522;BME280;39398;48.382;9.802;2022-12-18T02:32:49;94708.34;;;-6.63;100.00
53522;BME280;39398;48.382;9.802;2022-12-18T02:33:54;94708.25;;;-6.61;100.00
53522;BME280;39398;48.382;9.802;2022-12-18T02:34:58;94709.56;;;-6.52;100.00
53522;BME280;39398;48.382;9.802;2022-12-18T02:36:01;94717.00;;;-6.46;100.00
53522;BME280;39398;48.382;9.802;2022-12-18T02:37:06;94719.22;;;-6.58;100.00
53522;BME280;39398;48.382;9.802;2022-12-18T02:38:11;94717.50;;;-6.57;100.00
53522;BME280;39398;48.382;9.802;2022-12-18T02:39:13;94721.50;;;-6.51;100.00
53522;BME280;39398;48.382;9.802;2022-12-18T02:40:18;94715.25;;;-6.46;100.00
53522;BME280;39398;48.382;9.802;2022-12-18T02:41:23;94718.72;;;-6.28;100.00
53522;BME280;39398;48.382;9.802;2022-12-18T02:42:25;94721.84;;;-6.40;100.00
53522;BME280;39398;48.382;9.802;2022-12-18T02:43:27;94718.38;;;-6.39;100.00
53522;BME280;39398;48.382;9.802;2022-12-18T02:44:30;94724.56;;;-6.81;100.00
53522;BME280;39398;48.382;9.802;2022-12-18T02:45:32;94725.47;;;-6.82;100.00
53522;BME280;39398;48.382;9.802;2022-12-18T02:46:35;94719.06;;;-6.73;100.00
53522;BME280;39398;48.382;9.802;2022-12-18T02:47:39;94727.94;;;-6.99;100.00
53522;BME280;39398;48.382;9.802;2022-12-18T02:48:42;94721.03;;;-6.79;100.00
53522;BME280;39398;48.382;9.802;2022-12-18T02:49:49;94718.22;;;-6.93;100.00
53522;BME280;39398;48.382;9.802;2022-12-18T02:50:59;94727.44;;;-7.08;100.00
53522;BME280;39398;48.382;9.802;2022-12-18T02:52:08;94722.34;;;-6.89;100.00
53522;BME280;39398;48.382;9.802;2022-12-18T02:53:18;94718.34;;;-6.96;100.00
53522;BME280;39398;48.382;9.802;2022-12-18T02:55:59;94722.56;;;-6.56;100.00
53522;BME280;39398;48.382;9.802;2022-12-18T02:57:13;94718.31;;;-6.75;100.00
53522;BME280;39398;48.382;9.802;2022-12-18T02:58:19;94721.31;;;-7.05;100.00
53522;BME280;39398;48.382;9.802;2022-12-18T02:59:27;94724.41;;;-6.97;100.00
53522;BME280;39398;48.382;9.802;2022-12-18T03:00:37;94720.31;;;-7.01;100.00
53522;BME280;39398;48.382;9.802;2022-12-18T03:01:44;94727.53;;;-7.30;100.00
53522;BME280;39398;48.382;9.802;2022-12-18T03:02:54;94728.00;;;-7.01;100.00
53522;BME280;39398;48.382;9.802;2022-12-18T03:04:01;94725.84;;;-7.10;100.00
53522;BME280;39398;48.382;9.802;2022-12-18T03:05:09;94725.44;;;-7.01;100.00
53522;BME280;39398;48.382;9.802;2022-12-18T03:06:16;94732.19;;;-6.98;100.00
53522;BME280;39398;48.382;9.802;2022-12-18T03:07:28;94732.69;;;-6.71;100.00
53522;BME280;39398;48.382;9.802;2022-12-18T03:08:38;94731.56;;;-7.24;100.00
53522;BME280;39398;48.382;9.802;2022-12-18T03:09:43;94737.47;;;-6.83;100.00
53522;BME280;39398;48.382;9.802;2022-12-18T03:10:53;94736.13;;;-6.91;100.00
53522;BME280;39398;48.382;9.802;2022-12-18T03:12:01;94737.81;;;-6.71;100.00
53522;BME280;39398;48.382;9.802;2022-12-18T03:13:07;94745.28;;;-7.05;100.00
53522;BME280;39398;48.382;9.802;2022-12-18T03:14:10;94740.63;;;-6.96;100.00
53522;BME280;39398;48.382;9.802;2022-12-18T03:15:18;94746.63;;;-7.16;100.00
53522;BME280;39398;48.382;9.802;2022-12-18T03:16:23;94735.28;;;-7.11;100.00
53522;BME280;39398;48.382;9.802;2022-12-18T03:17:27;94735.16;;;-7.08;100.00
53522;BME280;39398;48.382;9.802;2022-12-18T03:18:32;94742.38;;;-6.97;100.00
53522;BME280;39398;48.382;9.802;2022-12-18T03:19:35;94739.22;;;-7.04;100.00
53522;BME280;39398;48.382;9.802;2022-12-18T03:20:39;94733.84;;;-6.97;100.00
53522;BME280;39398;48.382;9.802;2022-12-18T03:21:46;94737.78;;;-6.90;100.00
53522;BME280;39398;48.382;9.802;2022-12-18T03:22:51;94735.88;;;-6.85;100.00
53522;BME280;39398;48.382;9.802;2022-12-18T03:23:55;94735.81;;;-6.65;100.00
53522;BME280;39398;48.382;9.802;2022-12-18T03:24:58;94732.53;;;-6.87;100.00
53522;BME280;39398;48.382;9.802;2022-12-18T03:26:06;94724.31;;;-7.14;100.00
53522;BME280;39398;48.382;9.802;2022-12-18T03:27:11;94722.34;;;-7.09;100.00
53522;BME280;39398;48.382;9.802;2022-12-18T03:28:20;94725.97;;;-7.13;100.00
53522;BME280;39398;48.382;9.802;2022-12-18T03:29:25;94720.56;;;-7.28;100.00
53522;BME280;39398;48.382;9.802;2022-12-18T03:30:29;94722.19;;;-7.05;100.00
53522;BME280;39398;48.382;9.802;2022-12-18T03:31:32;94719.22;;;-6.95;100.00
53522;BME280;39398;48.382;9.802;2022-12-18T03:32:39;94715.03;;;-6.98;100.00
53522;BME280;39398;48.382;9.802;2022-12-18T03:33:46;94722.75;;;-6.79;100.00
53522;BME280;39398;48.382;9.802;2022-12-18T03:34:51;94716.84;;;-6.81;100.00
53522;BME280;39398;48.382;9.802;2022-12-18T03:35:53;94718.66;;;-6.83;100.00
53522;BME280;39398;48.382;9.802;2022-12-18T03:36:54;94723.63;;;-6.99;100.00
53522;BME280;39398;48.382;9.802;2022-12-18T03:37:56;94716.97;;;-7.03;100.00
53522;BME280;39398;48.382;9.802;2022-12-18T03:38:58;94720.66;;;-7.29;100.00
53522;BME280;39398;48.382;9.802;2022-12-18T03:39:59;94718.44;;;-6.97;100.00
53522;BME280;39398;48.382;9.802;2022-12-18T03:41:07;94714.06;;;-6.76;100.00
53522;BME280;39398;48.382;9.802;2022-12-18T03:42:16;94719.63;;;-6.86;100.00
53522;BME280;39398;48.382;9.802;2022-12-18T03:43:32;94723.22;;;-6.90;100.00
53522;BME280;39398;48.382;9.802;2022-12-18T03:44:43;94725.72;;;-7.07;100.00
53522;BME280;39398;48.382;9.802;2022-12-18T03:45:53;94729.66;;;-7.00;100.00
53522;BME280;39398;48.382;9.802;2022-12-18T03:47:01;94730.00;;;-7.08;100.00
53522;BME280;39398;48.382;9.802;2022-12-18T03:48:07;94733.31;;;-7.06;100.00
53522;BME280;39398;48.382;9.802;2022-12-18T03:49:17;94729.41;;;-6.94;100.00
53522;BME280;39398;48.382;9.802;2022-12-18T03:50:24;94732.59;;;-6.89;100.00
53522;BME280;39398;48.382;9.802;2022-12-18T03:51:37;94736.53;;;-7.00;100.00
53522;BME280;39398;48.382;9.802;2022-12-18T03:52:46;94734.13;;;-6.85;100.00
53522;BME280;39398;48.382;9.802;2022-12-18T03:53:55;94727.00;;;-6.78;100.00
53522;BME280;39398;48.382;9.802;2022-12-18T03:54:59;94726.03;;;-6.75;100.00
53522;BME280;39398;48.382;9.802;2022-12-18T03:56:04;94726.03;;;-6.57;100.00
53522;BME280;39398;48.382;9.802;2022-12-18T03:57:08;94721.63;;;-7.11;100.00
53522;BME280;39398;48.382;9.802;2022-12-18T03:58:15;94729.97;;;-6.87;100.00
53522;BME280;39398;48.382;9.802;2022-12-18T03:59:20;94732.66;;;-6.90;100.00
53522;BME280;39398;48.382;9.802;2022-12-18T04:00:23;94729.44;;;-7.14;100.00
53522;BME280;39398;48.382;9.802;2022-12-18T04:01:29;94734.63;;;-7.16;100.00
53522;BME280;39398;48.382;9.802;2022-12-18T04:02:33;94728.28;;;-7.28;100.00
53522;BME280;39398;48.382;9.802;2022-12-18T04:03:37;94737.31;;;-6.80;100.00
53522;BME280;39398;48.382;9.802;2022-12-18T04:04:41;94736.84;;;-6.69;100.00
53522;BME280;39398;48.382;9.802;2022-12-18T04:05:45;94735.66;;;-6.81;100.00
53522;BME280;39398;48.382;9.802;2022-12-18T04:06:50;94739.06;;;-6.61;100.00
53522;BME280;39398;48.382;9.802;2022-12-18T04:07:53;94741.31;;;-6.93;100.00
53522;BME280;39398;48.382;9.802;2022-12-18T04:08:56;94733.03;;;-6.79;100.00
53522;BME280;39398;48.382;9.802;2022-12-18T04:10:00;94735.16;;;-7.08;100.00
53522;BME280;39398;48.382;9.802;2022-12-18T04:11:03;94735.47;;;-7.15;100.00
53522;BME280;39398;48.382;9.802;2022-12-18T04:12:06;94738.63;;;-6.90;100.00
53522;BME280;39398;48.382;9.802;2022-12-18T04:13:09;94748.84;;;-6.88;100.00
53522;BME280;39398;48.382;9.802;2022-12-18T04:14:10;94745.09;;;-6.81;100.00
53522;BME280;39398;48.382;9.802;2022-12-18T04:15:19;94741.69;;;-6.82;100.00
53522;BME280;39398;48.382;9.802;2022-12-18T04:16:21;94737.97;;;-6.56;100.00
53522;BME280;39398;48.382;9.802;2022-12-18T04:17:22;94745.88;;;-6.60;100.00
53522;BME280;39398;48.382;9.802;2022-12-18T04:18:24;94741.16;;;-6.69;100.00
53522;BME280;39398;48.382;9.802;2022-12-18T04:19:26;94752.97;;;-6.65;100.00
53522;BME280;39398;48.382;9.802;2022-12-18T04:20:27;94752.00;;;-6.63;100.00
53522;BME280;39398;48.382;9.802;2022-12-18T04:21:29;94742.47;;;-6.61;100.00
53522;BME280;39398;48.382;9.802;2022-12-18T04:22:30;94746.09;;;-6.46;100.00
53522;BME280;39398;48.382;9.802;2022-12-18T04:23:32;94735.81;;;-6.65;100.00
53522;BME280;39398;48.382;9.802;2022-12-18T04:24:58;94747.75;;;-6.45;100.00
53522;BME280;39398;48.382;9.802;2022-12-18T04:26:00;94741.28;;;-6.72;100.00
53522;BME280;39398;48.382;9.802;2022-12-18T04:27:01;94746.44;;;-6.72;100.00
53522;BME280;39398;48.382;9.802;2022-12-18T04:28:03;94750.97;;;-6.98;100.00
53522;BME280;39398;48.382;9.802;2022-12-18T04:29:04;94748.72;;;-6.85;100.00
53522;BME280;39398;48.382;9.802;2022-12-18T04:30:07;94749.44;;;-6.63;100.00
53522;BME280;39398;48.382;9.802;2022-12-18T04:31:10;94743.38;;;-6.62;100.00
53522;BME280;39398;48.382;9.802;2022-12-18T04:32:11;94747.19;;;-6.70;100.00
53522;BME280;39398;48.382;9.802;2022-12-18T04:33:13;94752.25;;;-6.69;100.00
53522;BME280;39398;48.382;9.802;2022-12-18T04:34:15;94754.25;;;-6.94;100.00
53522;BME280;39398;48.382;9.802;2022-12-18T04:35:17;94751.84;;;-6.99;100.00
53522;BME280;39398;48.382;9.802;2022-12-18T04:36:19;94754.94;;;-6.91;100.00
53522;BME280;39398;48.382;9.802;2022-12-18T04:37:20;94755.50;;;-6.84;100.00
53522;BME280;39398;48.382;9.802;2022-12-18T04:38:22;94753.22;;;-6.71;100.00
53522;BME280;39398;48.382;9.802;2022-12-18T04:39:24;94751.47;;;-6.90;100.00
53522;BME280;39398;48.382;9.802;2022-12-18T04:40:26;94750.56;;;-6.89;100.00
53522;BME280;39398;48.382;9.802;2022-12-18T04:41:27;94754.69;;;-6.66;100.00
53522;BME280;39398;48.382;9.802;2022-12-18T04:42:29;94753.19;;;-6.90;100.00
53522;BME280;39398;48.382;9.802;2022-12-18T04:43:30;94753.41;;;-6.95;100.00
53522;BME280;39398;48.382;9.802;2022-12-18T04:44:32;94747.28;;;-6.92;100.00
53522;BME280;39398;48.382;9.802;2022-12-18T04:45:34;94746.69;;;-7.18;100.00
53522;BME280;39398;48.382;9.802;2022-12-18T04:46:36;94749.41;;;-6.82;100.00
53522;BME280;39398;48.382;9.802;2022-12-18T04:47:38;94752.25;;;-6.69;100.00
53522;BME280;39398;48.382;9.802;2022-12-18T04:48:40;94749.75;;;-6.70;100.00
53522;BME280;39398;48.382;9.802;2022-12-18T04:49:41;94752.63;;;-6.97;100.00
53522;BME280;39398;48.382;9.802;2022-12-18T04:50:43;94758.50;;;-6.74;100.00
53522;BME280;39398;48.382;9.802;2022-12-18T04:51:50;94753.38;;;-6.56;100.00
53522;BME280;39398;48.382;9.802;2022-12-18T04:52:52;94752.81;;;-6.43;100.00
53522;BME280;39398;48.382;9.802;2022-12-18T04:53:54;94752.59;;;-6.76;100.00
53522;BME280;39398;48.382;9.802;2022-12-18T04:54:55;94753.88;;;-6.47;100.00
53522;BME280;39398;48.382;9.802;2022-12-18T04:56:05;94759.47;;;-6.77;100.00
53522;BME280;39398;48.382;9.802;2022-12-18T04:57:06;94760.16;;;-6.73;100.00
53522;BME280;39398;48.382;9.802;2022-12-18T04:58:08;94765.28;;;-7.13;100.00
53522;BME280;39398;48.382;9.802;2022-12-18T04:59:10;94763.56;;;-7.33;100.00
53522;BME280;39398;48.382;9.802;2022-12-18T05:00:12;94768.44;;;-7.06;100.00
53522;BME280;39398;48.382;9.802;2022-12-18T05:01:15;94777.56;;;-6.80;100.00
53522;BME280;39398;48.382;9.802;2022-12-18T05:02:18;94771.47;;;-6.78;100.00
53522;BME280;39398;48.382;9.802;2022-12-18T05:03:20;94771.00;;;-6.86;100.00
53522;BME280;39398;48.382;9.802;2022-12-18T05:04:22;94771.25;;;-7.12;100.00
53522;BME280;39398;48.382;9.802;2022-12-18T05:05:23;94763.81;;;-6.98;100.00
53522;BME280;39398;48.382;9.802;2022-12-18T05:06:25;94764.91;;;-7.04;100.00
53522;BME280;39398;48.382;9.802;2022-12-18T05:07:26;94766.78;;;-7.07;100.00
53522;BME280;39398;48.382;9.802;2022-12-18T05:08:28;94768.34;;;-6.84;100.00
53522;BME280;39398;48.382;9.802;2022-12-18T05:09:29;94771.72;;;-6.63;100.00
53522;BME280;39398;48.382;9.802;2022-12-18T05:10:31;94763.09;;;-6.62;100.00
53522;BME280;39398;48.382;9.802;2022-12-18T05:11:38;94770.38;;;-6.53;100.00
53522;BME280;39398;48.382;9.802;2022-12-18T05:12:40;94769.59;;;-6.74;100.00
53522;BME280;39398;48.382;9.802;2022-12-18T05:13:42;94771.00;;;-6.86;100.00
53522;BME280;39398;48.382;9.802;2022-12-18T05:14:49;94774.47;;;-6.68;100.00
53522;BME280;39398;48.382;9.802;2022-12-18T05:15:52;94766.00;;;-6.70;100.00
53522;BME280;39398;48.382;9.802;2022-12-18T05:16:53;94766.81;;;-6.88;100.00
53522;BME280;39398;48.382;9.802;2022-12-18T05:18:03;94770.22;;;-7.29;100.00
53522;BME280;39398;48.382;9.802;2022-12-18T05:19:05;94777.03;;;-7.07;100.00
53522;BME280;39398;48.382;9.802;2022-12-18T05:20:07;94773.94;;;-7.15;100.00
53522;BME280;39398;48.382;9.802;2022-12-18T05:21:09;94773.50;;;-7.25;100.00
53522;BME280;39398;48.382;9.802;2022-12-18T05:22:11;94768.56;;;-7.09;100.00
53522;BME280;39398;48.382;9.802;2022-12-18T05:23:13;94772.53;;;-7.22;100.00
53522;BME280;39398;48.382;9.802;2022-12-18T05:24:14;94784.53;;;-7.23;100.00
53522;BME280;39398;48.382;9.802;2022-12-18T05:25:17;94775.50;;;-7.11;100.00
53522;BME280;39398;48.382;9.802;2022-12-18T05:26:18;94775.09;;;-7.02;100.00
53522;BME280;39398;48.382;9.802;2022-12-18T05:27:20;94772.56;;;-6.83;100.00
53522;BME280;39398;48.382;9.802;2022-12-18T05:28:22;94776.59;;;-6.78;100.00
53522;BME280;39398;48.382;9.802;2022-12-18T05:29:24;94774.81;;;-6.75;100.00
53522;BME280;39398;48.382;9.802;2022-12-18T05:30:26;94784.69;;;-6.47;100.00
53522;BME280;39398;48.382;9.802;2022-12-18T05:31:27;94782.16;;;-6.68;100.00
53522;BME280;39398;48.382;9.802;2022-12-18T05:32:29;94790.25;;;-7.16;100.00
53522;BME280;39398;48.382;9.802;2022-12-18T05:33:33;94783.69;;;-7.03;100.00
53522;BME280;39398;48.382;9.802;2022-12-18T05:34:35;94787.78;;;-6.79;100.00
53522;BME280;39398;48.382;9.802;2022-12-18T05:35:36;94783.44;;;-6.97;100.00
53522;BME280;39398;48.382;9.802;2022-12-18T05:36:38;94790.16;;;-7.15;100.00